createdAt,value
2023-03-17T00:01:51.097Z,3.20
2023-03-17T00:04:22.763Z,2.00
2023-03-17T00:06:49.392Z,8.18
2023-03-17T00:09:18.187Z,3.55
2023-03-17T00:11:45.991Z,3.10
2023-03-17T00:14:12.931Z,2.38
2023-03-17T00:16:44.812Z,4.95
2023-03-17T00:19:33.046Z,3.63
2023-03-17T00:22:00.943Z,2.40
2023-03-17T00:24:28.386Z,5.32
2023-03-17T00:26:55.015Z,4.15
2023-03-17T00:29:21.430Z,3.42
2023-03-17T00:31:50.760Z,2.25
2023-03-17T00:34:18.850Z,4.80
2023-03-17T00:36:49.660Z,4.28
2023-03-17T00:41:43.523Z,2.00
2023-03-17T00:44:10.073Z,5.00
2023-03-17T00:46:38.729Z,5.85
2023-03-17T00:49:21.382Z,3.75
2023-03-17T00:51:49.694Z,2.28
2023-03-17T00:54:17.475Z,6.75
2023-03-17T00:56:44.811Z,5.22
2023-03-17T00:59:33.549Z,7.95
2023-03-17T01:02:00.329Z,4.03
2023-03-17T01:04:26.900Z,3.97
2023-03-17T01:06:53.987Z,2.75
2023-03-17T01:09:25.696Z,2.97
2023-03-17T01:11:52.990Z,2.42
2023-03-17T01:14:19.442Z,2.70
2023-03-17T01:16:47.703Z,1.35
2023-03-17T01:19:14.632Z,3.88
2023-03-17T01:21:42.461Z,1.58
2023-03-17T01:24:09.565Z,5.20
2023-03-17T01:26:36.332Z,2.70
2023-03-17T01:29:04.727Z,2.50
2023-03-17T01:31:31.454Z,5.57
2023-03-17T01:33:58.000Z,2.70
2023-03-17T01:36:24.525Z,4.28
2023-03-17T01:38:51.013Z,8.00
2023-03-17T01:41:18.941Z,3.90
2023-03-17T01:43:45.423Z,2.92
2023-03-17T01:46:30.919Z,2.78
2023-03-17T01:49:09.409Z,3.42
2023-03-17T01:51:44.571Z,5.55
2023-03-17T01:54:17.059Z,3.08
2023-03-17T01:56:47.218Z,3.25
2023-03-17T01:59:19.427Z,1.65
2023-03-17T02:01:49.578Z,3.40
2023-03-17T02:04:16.629Z,3.05
2023-03-17T02:06:55.269Z,2.35
2023-03-17T02:09:24.053Z,3.50
2023-03-17T02:11:50.851Z,2.92
2023-03-17T02:14:17.767Z,4.93
2023-03-17T02:16:45.121Z,2.50
2023-03-17T02:19:11.669Z,3.25
2023-03-17T02:21:45.198Z,2.08
2023-03-17T02:24:27.835Z,3.10
2023-03-17T02:26:57.622Z,2.45
2023-03-17T02:29:27.616Z,2.78
2023-03-17T02:31:54.620Z,2.38
2023-03-17T02:34:29.635Z,4.05
2023-03-17T02:36:56.136Z,3.63
2023-03-17T02:39:22.852Z,1.60
2023-03-17T02:41:50.051Z,2.15
2023-03-17T02:44:17.251Z,2.97
2023-03-17T02:46:44.170Z,3.38
2023-03-17T02:49:11.829Z,3.47
2023-03-17T02:51:38.750Z,2.63
2023-03-17T02:54:05.662Z,2.60
2023-03-17T02:56:32.746Z,2.65
2023-03-17T02:58:59.171Z,3.10
2023-03-17T03:01:26.874Z,4.40
2023-03-17T03:03:53.465Z,4.32
2023-03-17T03:06:19.869Z,3.40
2023-03-17T03:08:46.802Z,2.00
2023-03-17T03:11:13.244Z,2.25
2023-03-17T03:13:39.709Z,2.22
2023-03-17T03:16:06.723Z,2.72
2023-03-17T03:18:33.549Z,1.50
2023-03-17T03:21:00.915Z,4.55
2023-03-17T03:23:28.124Z,2.95
2023-03-17T03:25:54.633Z,2.53
2023-03-17T03:28:21.286Z,2.83
2023-03-17T03:30:47.748Z,3.92
2023-03-17T03:33:15.259Z,2.35
2023-03-17T03:35:41.721Z,2.35
2023-03-17T03:38:08.545Z,2.55
2023-03-17T03:40:36.905Z,1.80
2023-03-17T03:43:16.264Z,2.72
2023-03-17T03:45:49.116Z,3.75
2023-03-17T03:48:15.615Z,2.33
2023-03-17T03:50:42.129Z,3.42
2023-03-17T03:53:08.602Z,3.33
2023-03-17T03:55:35.037Z,2.65
2023-03-17T03:58:01.473Z,3.25
2023-03-17T04:00:27.978Z,3.35
2023-03-17T04:02:54.472Z,3.88
2023-03-17T04:05:21.129Z,1.98
2023-03-17T04:07:47.840Z,2.55
2023-03-17T04:10:15.783Z,1.63
2023-03-17T04:12:42.889Z,5.00
2023-03-17T04:15:11.307Z,2.45
2023-03-17T04:17:38.114Z,4.00
2023-03-17T04:20:05.280Z,3.35
2023-03-17T04:22:31.774Z,2.17
2023-03-17T04:24:58.220Z,2.58
2023-03-17T04:27:24.627Z,1.95
2023-03-17T04:29:51.037Z,2.67
2023-03-17T04:32:17.662Z,1.67
2023-03-17T04:34:44.110Z,1.73
2023-03-17T04:37:11.729Z,2.85
2023-03-17T04:39:38.786Z,3.20
2023-03-17T04:42:06.064Z,3.28
2023-03-17T04:44:32.622Z,3.13
2023-03-17T04:47:03.440Z,2.75
2023-03-17T04:49:29.923Z,4.20
2023-03-17T04:51:56.330Z,3.55
2023-03-17T04:54:23.070Z,2.10
2023-03-17T04:56:49.474Z,2.83
2023-03-17T04:59:16.254Z,1.38
2023-03-17T05:01:42.790Z,2.90
2023-03-17T05:04:11.152Z,4.93
2023-03-17T05:06:39.567Z,1.33
2023-03-17T05:09:06.267Z,3.80
2023-03-17T05:11:32.743Z,1.98
2023-03-17T05:13:59.186Z,3.53
2023-03-17T05:16:25.731Z,4.78
2023-03-17T05:18:52.194Z,1.67
2023-03-17T05:21:18.607Z,2.08
2023-03-17T05:23:45.073Z,2.38
2023-03-17T05:26:11.510Z,3.58
2023-03-17T05:28:38.156Z,2.30
2023-03-17T05:31:05.271Z,2.95
2023-03-17T05:33:31.759Z,2.38
2023-03-17T05:35:58.409Z,2.05
2023-03-17T05:38:25.043Z,1.23
2023-03-17T05:40:52.652Z,5.70
2023-03-17T05:43:19.433Z,2.75
2023-03-17T05:45:47.264Z,2.65
2023-03-17T05:48:13.814Z,2.65
2023-03-17T05:50:41.623Z,3.40
2023-03-17T05:53:08.617Z,3.45
2023-03-17T05:55:35.161Z,6.53
2023-03-17T05:58:04.254Z,1.90
2023-03-17T06:00:31.404Z,2.08
2023-03-17T06:02:58.424Z,2.30
2023-03-17T06:05:24.915Z,1.70
2023-03-17T06:07:55.762Z,2.30
2023-03-17T06:10:24.099Z,3.20
2023-03-17T06:12:50.877Z,4.93
2023-03-17T06:15:17.395Z,4.55
2023-03-17T06:17:43.909Z,2.63
2023-03-17T06:20:11.796Z,3.28
2023-03-17T06:22:42.347Z,2.55
2023-03-17T06:27:42.619Z,2.25
2023-03-17T06:30:10.139Z,3.70
2023-03-17T06:32:36.669Z,4.47
2023-03-17T06:35:05.205Z,3.72
2023-03-17T06:37:31.690Z,3.47
2023-03-17T06:39:58.338Z,2.58
2023-03-17T06:42:24.832Z,5.30
2023-03-17T06:44:52.544Z,3.47
2023-03-17T06:47:19.980Z,3.17
2023-03-17T06:49:46.539Z,3.97
2023-03-17T06:52:14.011Z,4.00
2023-03-17T06:54:41.242Z,6.40
2023-03-17T06:57:07.960Z,2.10
2023-03-17T06:59:34.359Z,3.67
2023-03-17T07:02:00.875Z,2.83
2023-03-17T07:04:27.455Z,4.57
2023-03-17T07:06:54.448Z,2.63
2023-03-17T07:09:22.048Z,4.65
2023-03-17T07:11:48.479Z,2.15
2023-03-17T07:14:14.915Z,3.40
2023-03-17T07:16:41.350Z,3.97
2023-03-17T07:19:08.219Z,3.58
2023-03-17T07:21:34.628Z,2.60
2023-03-17T07:24:01.605Z,2.65
2023-03-17T07:26:28.103Z,3.70
2023-03-17T07:28:54.568Z,3.50
2023-03-17T07:31:21.352Z,7.80
2023-03-17T07:33:47.918Z,4.43
2023-03-17T07:36:15.928Z,2.50
2023-03-17T07:38:43.211Z,2.47
2023-03-17T07:41:10.097Z,3.75
2023-03-17T07:43:37.718Z,4.22
2023-03-17T07:46:06.375Z,4.07
2023-03-17T07:48:34.238Z,5.57
2023-03-17T07:51:00.933Z,4.70
2023-03-17T07:53:27.573Z,2.40
2023-03-17T07:55:54.310Z,3.22
2023-03-17T07:58:21.659Z,5.30
2023-03-17T08:00:48.421Z,3.30
2023-03-17T08:03:15.442Z,2.97
2023-03-17T08:05:41.943Z,4.55
2023-03-17T08:08:08.421Z,3.90
2023-03-17T08:10:35.416Z,5.70
2023-03-17T08:13:02.395Z,4.80
2023-03-17T08:15:30.803Z,6.78
2023-03-17T08:17:57.365Z,4.03
2023-03-17T08:20:23.760Z,4.28
2023-03-17T08:22:50.233Z,3.50
2023-03-17T08:25:17.767Z,5.80
2023-03-17T08:27:44.280Z,3.00
2023-03-17T08:30:12.524Z,3.05
2023-03-17T08:32:39.073Z,4.10
2023-03-17T08:35:06.297Z,4.30
2023-03-17T08:37:34.692Z,3.58
2023-03-17T08:40:01.121Z,5.18
2023-03-17T08:42:27.550Z,2.83
2023-03-17T08:44:54.060Z,3.78
2023-03-17T08:47:20.464Z,3.92
2023-03-17T08:49:46.871Z,3.63
2023-03-17T08:52:13.414Z,3.38
2023-03-17T08:54:39.929Z,4.30
2023-03-17T08:57:06.549Z,5.40
2023-03-17T08:59:33.541Z,3.00
2023-03-17T09:02:00.597Z,3.40
2023-03-17T09:04:27.993Z,5.93
2023-03-17T09:07:03.236Z,4.60
2023-03-17T09:09:31.289Z,3.58
2023-03-17T09:11:58.316Z,5.35
2023-03-17T09:14:25.020Z,3.53
2023-03-17T09:16:52.252Z,3.80
2023-03-17T09:19:19.064Z,3.40
2023-03-17T09:21:45.752Z,5.25
2023-03-17T09:24:12.476Z,4.47
2023-03-17T09:26:39.347Z,2.80
2023-03-17T09:29:07.180Z,5.97
2023-03-17T09:31:36.404Z,4.22
2023-03-17T09:34:05.099Z,6.03
2023-03-17T09:36:33.115Z,4.10
2023-03-17T09:39:00.881Z,7.13
2023-03-17T09:41:48.636Z,4.28
2023-03-17T09:44:48.096Z,5.07
2023-03-17T09:47:14.447Z,3.75
2023-03-17T09:49:47.332Z,4.07
2023-03-17T09:52:24.974Z,5.13
2023-03-17T09:54:51.494Z,5.88
2023-03-17T09:57:29.437Z,5.85
2023-03-17T10:00:01.460Z,4.25
2023-03-17T10:02:31.806Z,4.47
2023-03-17T10:04:59.561Z,5.53
2023-03-17T10:07:37.540Z,3.80
2023-03-17T10:10:13.390Z,3.53
2023-03-17T10:13:03.639Z,4.18
2023-03-17T10:16:06.093Z,5.10
2023-03-17T10:21:18.507Z,4.95
2023-03-17T10:23:45.570Z,6.00
2023-03-17T10:26:31.138Z,5.75
2023-03-17T10:28:59.680Z,4.55
2023-03-17T10:31:35.519Z,5.15
2023-03-17T10:34:13.641Z,5.05
2023-03-17T10:36:44.338Z,6.47
2023-03-17T10:39:14.587Z,3.63
2023-03-17T10:41:52.546Z,5.38
2023-03-17T10:44:33.727Z,6.38
2023-03-17T10:47:00.678Z,7.63
2023-03-17T10:49:35.265Z,5.95
2023-03-17T10:52:07.576Z,5.13
2023-03-17T10:54:36.881Z,6.68
2023-03-17T10:57:08.255Z,5.85
2023-03-17T10:59:46.234Z,5.78
2023-03-17T11:02:31.540Z,5.28
2023-03-17T11:05:09.375Z,4.88
2023-03-17T11:07:38.959Z,5.10
2023-03-17T11:10:39.625Z,5.43
2023-03-17T11:13:06.717Z,4.97
2023-03-17T11:15:42.906Z,5.22
2023-03-17T11:18:26.205Z,4.65
2023-03-17T11:21:19.621Z,4.15
2023-03-17T11:23:51.495Z,4.72
2023-03-17T11:26:59.104Z,4.65
2023-03-17T11:29:28.194Z,8.85
2023-03-17T11:32:32.641Z,6.30
2023-03-17T11:35:08.876Z,5.03
2023-03-17T11:38:14.498Z,4.85
2023-03-17T11:40:51.445Z,7.30
2023-03-17T11:43:30.101Z,4.72
2023-03-17T11:46:28.198Z,5.85
2023-03-17T11:49:10.882Z,5.15
2023-03-17T11:52:01.563Z,6.88
2023-03-17T11:54:41.377Z,6.38
2023-03-17T11:57:24.832Z,6.25
2023-03-17T12:00:04.025Z,6.22
2023-03-17T12:02:48.926Z,7.43
2023-03-17T12:05:34.948Z,5.55
2023-03-17T12:08:23.291Z,5.30
2023-03-17T12:10:54.610Z,5.25
2023-03-17T12:13:43.368Z,5.90
2023-03-17T12:16:25.527Z,4.57
2023-03-17T12:19:19.382Z,4.78
2023-03-17T12:22:02.515Z,4.60
2023-03-17T12:24:40.291Z,4.50
2023-03-17T12:27:19.854Z,4.97
2023-03-17T12:29:49.948Z,6.00
2023-03-17T12:32:22.898Z,4.85
2023-03-17T12:34:57.703Z,5.68
2023-03-17T12:37:27.390Z,7.00
2023-03-17T12:40:06.457Z,5.85
2023-03-17T12:42:42.481Z,5.15
2023-03-17T12:45:35.248Z,4.57
2023-03-17T12:48:33.542Z,4.95
2023-03-17T12:51:09.446Z,5.22
2023-03-17T12:53:44.935Z,4.90
2023-03-17T12:56:32.297Z,6.20
2023-03-17T12:59:08.677Z,5.65
2023-03-17T13:04:29.914Z,4.03
2023-03-17T13:07:08.430Z,6.18
2023-03-17T13:09:43.123Z,6.22
2023-03-17T13:12:44.514Z,6.75
2023-03-17T13:15:35.960Z,8.68
2023-03-17T13:18:17.623Z,7.28
2023-03-17T13:20:45.665Z,6.55
2023-03-17T13:23:12.045Z,4.53
2023-03-17T13:25:41.721Z,9.52
2023-03-17T13:28:11.736Z,7.30
2023-03-17T13:30:38.447Z,5.68
2023-03-17T13:33:11.162Z,5.25
2023-03-17T13:36:05.799Z,5.85
2023-03-17T13:38:35.437Z,5.13
2023-03-17T13:41:26.807Z,4.82
2023-03-17T13:44:02.453Z,6.97
2023-03-17T13:46:39.008Z,6.53
2023-03-17T13:49:36.680Z,8.10
2023-03-17T13:52:08.093Z,5.28
2023-03-17T13:54:41.832Z,4.60
2023-03-17T13:57:36.478Z,5.72
2023-03-17T14:00:24.101Z,7.32
2023-03-17T14:03:05.032Z,6.80
2023-03-17T14:05:37.684Z,6.28
2023-03-17T14:08:32.103Z,5.95
2023-03-17T14:11:01.506Z,4.95
2023-03-17T14:13:35.388Z,6.93
2023-03-17T14:16:12.228Z,6.78
2023-03-17T14:18:42.099Z,6.63
2023-03-17T14:23:57.408Z,7.10
2023-03-17T14:26:29.556Z,7.63
2023-03-17T14:28:59.776Z,6.20
2023-03-17T14:31:28.826Z,5.78
2023-03-17T14:34:02.477Z,5.55
2023-03-17T14:36:34.285Z,6.53
2023-03-17T14:39:00.877Z,6.65
2023-03-17T14:41:28.347Z,8.05
2023-03-17T14:44:00.018Z,8.65
2023-03-17T14:46:32.043Z,5.93
2023-03-17T14:49:14.298Z,5.45
2023-03-17T14:51:41.971Z,6.03
2023-03-17T14:54:17.859Z,6.53
2023-03-17T14:56:50.623Z,6.70
2023-03-17T14:59:23.524Z,9.68
2023-03-17T15:01:55.332Z,5.20
2023-03-17T15:04:34.594Z,5.78
2023-03-17T15:07:04.446Z,5.15
2023-03-17T15:12:38.387Z,7.10
2023-03-17T15:17:37.108Z,5.60
2023-03-17T15:20:07.438Z,7.03
2023-03-17T15:22:43.828Z,5.63
2023-03-17T15:27:55.984Z,4.93
2023-03-17T15:30:22.851Z,5.40
2023-03-17T15:32:58.587Z,5.68
2023-03-17T15:35:25.293Z,5.97
2023-03-17T15:37:51.698Z,9.30
2023-03-17T15:40:18.562Z,4.32
2023-03-17T15:42:45.662Z,5.38
2023-03-17T15:45:20.865Z,6.20
2023-03-17T15:47:47.351Z,7.45
2023-03-17T15:50:28.742Z,4.55
2023-03-17T15:52:58.858Z,6.32
2023-03-17T15:55:30.601Z,7.38
2023-03-17T15:57:58.587Z,5.03
2023-03-17T16:00:29.021Z,6.22
2023-03-17T16:03:00.209Z,7.88
2023-03-17T16:05:31.051Z,7.05
2023-03-17T16:07:57.748Z,5.75
2023-03-17T16:10:27.041Z,6.20
2023-03-17T16:12:54.426Z,6.07
2023-03-17T16:15:23.916Z,5.82
2023-03-17T16:17:58.343Z,6.43
2023-03-17T16:20:37.218Z,5.25
2023-03-17T16:23:24.384Z,7.97
2023-03-17T16:25:51.658Z,6.32
2023-03-17T16:28:21.040Z,5.32
2023-03-17T16:30:48.574Z,5.72
2023-03-17T16:33:22.068Z,5.25
2023-03-17T16:35:49.405Z,5.47
2023-03-17T16:38:18.747Z,6.10
2023-03-17T16:40:47.957Z,6.75
2023-03-17T16:43:25.455Z,6.38
2023-03-17T16:45:54.340Z,6.20
2023-03-17T16:48:20.826Z,5.90
2023-03-17T16:50:47.415Z,9.30
2023-03-17T16:53:13.904Z,8.30
2023-03-17T16:55:41.583Z,8.20
2023-03-17T16:58:19.933Z,7.30
2023-03-17T17:00:48.065Z,8.60
2023-03-17T17:03:14.966Z,7.00
2023-03-17T17:05:42.298Z,7.13
2023-03-17T17:08:09.096Z,7.63
2023-03-17T17:10:36.908Z,6.72
2023-03-17T17:13:07.623Z,7.72
2023-03-17T17:15:36.024Z,6.78
2023-03-17T17:18:06.921Z,8.15
2023-03-17T17:20:39.309Z,9.50
2023-03-17T17:23:11.089Z,7.75
2023-03-17T17:25:37.602Z,7.32
2023-03-17T17:28:04.179Z,9.02
2023-03-17T17:30:31.091Z,9.73
2023-03-17T17:32:59.585Z,6.80
2023-03-17T17:35:30.716Z,7.72
2023-03-17T17:37:59.159Z,8.55
2023-03-17T17:40:26.260Z,7.50
2023-03-17T17:42:53.554Z,9.80
2023-03-17T17:45:20.932Z,7.13
2023-03-17T17:47:48.015Z,9.45
2023-03-17T17:50:23.142Z,11.77
2023-03-17T17:52:49.624Z,6.95
2023-03-17T17:55:16.499Z,8.23
2023-03-17T17:57:42.998Z,8.15
2023-03-17T18:00:14.390Z,10.98
2023-03-17T18:02:40.817Z,7.53
2023-03-17T18:05:08.991Z,11.57
2023-03-17T18:07:35.860Z,9.48
2023-03-17T18:10:02.965Z,13.30
2023-03-17T18:12:29.583Z,11.57
2023-03-17T18:14:56.062Z,12.85
2023-03-17T18:17:22.909Z,8.85
2023-03-17T18:19:50.374Z,10.02
2023-03-17T18:22:16.980Z,16.45
2023-03-17T18:24:44.024Z,13.10
2023-03-17T18:27:11.413Z,10.57
2023-03-17T18:29:38.479Z,11.95
2023-03-17T18:32:06.918Z,11.02
2023-03-17T18:34:40.618Z,9.32
2023-03-17T18:37:07.671Z,10.15
2023-03-17T18:39:36.700Z,9.25
2023-03-17T18:42:05.602Z,10.10
2023-03-17T18:44:32.026Z,8.52
2023-03-17T18:46:58.486Z,9.10
2023-03-17T18:49:27.349Z,11.38
2023-03-17T18:51:56.581Z,10.95
2023-03-17T18:54:23.776Z,13.02
2023-03-17T18:56:50.601Z,10.45
2023-03-17T18:59:17.016Z,12.73
2023-03-17T19:01:43.534Z,13.70
2023-03-17T19:04:10.015Z,15.23
2023-03-17T19:06:39.401Z,13.00
2023-03-17T19:09:06.634Z,11.95
2023-03-17T19:11:35.643Z,9.43
2023-03-17T19:14:02.061Z,9.65
2023-03-17T19:16:29.138Z,9.35
2023-03-17T19:18:56.609Z,13.57
2023-03-17T19:21:23.631Z,7.68
2023-03-17T19:23:50.868Z,7.55
2023-03-17T19:26:17.912Z,13.02
2023-03-17T19:28:44.762Z,8.93
2023-03-17T19:31:12.190Z,13.48
2023-03-17T19:33:39.523Z,11.00
2023-03-17T19:36:12.143Z,7.47
2023-03-17T19:38:39.381Z,7.38
2023-03-17T19:41:06.697Z,9.35
2023-03-17T19:43:40.795Z,7.90
2023-03-17T19:46:08.711Z,8.73
2023-03-17T19:48:36.384Z,7.60
2023-03-17T19:51:03.152Z,5.05
2023-03-17T19:53:31.858Z,5.50
2023-03-17T19:55:58.280Z,6.72
2023-03-17T19:58:25.231Z,4.18
2023-03-17T20:00:51.722Z,4.82
2023-03-17T20:03:18.385Z,5.05
2023-03-17T20:05:46.089Z,8.98
2023-03-17T20:08:12.544Z,9.02
2023-03-17T20:10:39.173Z,6.38
2023-03-17T20:13:09.323Z,6.38
2023-03-17T20:18:03.857Z,7.45
2023-03-17T20:20:31.327Z,4.18
2023-03-17T20:22:57.946Z,6.28
2023-03-17T20:25:24.460Z,7.38
2023-03-17T20:27:51.036Z,4.78
2023-03-17T20:30:17.713Z,7.82
2023-03-17T20:32:44.247Z,4.78
2023-03-17T20:35:11.263Z,6.90
2023-03-17T20:37:41.335Z,7.75
2023-03-17T20:42:36.415Z,5.07
2023-03-17T20:45:03.559Z,6.35
2023-03-17T20:47:30.620Z,8.52
2023-03-17T20:49:58.793Z,7.95
2023-03-17T20:52:30.252Z,5.78
2023-03-17T20:54:59.379Z,6.32
2023-03-17T20:57:26.250Z,7.18
2023-03-17T20:59:52.676Z,6.07
2023-03-17T21:02:19.261Z,5.85
2023-03-17T21:04:48.666Z,7.32
2023-03-17T21:07:17.058Z,5.85
2023-03-17T21:09:43.883Z,7.53
2023-03-17T21:12:20.460Z,5.28
2023-03-17T21:17:16.357Z,5.55
2023-03-17T21:19:43.205Z,6.72
2023-03-17T21:22:10.351Z,6.93
2023-03-17T21:24:38.420Z,6.40
2023-03-17T21:27:06.844Z,6.20
2023-03-17T21:29:34.241Z,10.88
2023-03-17T21:32:01.625Z,7.05
2023-03-17T21:34:29.944Z,6.63
2023-03-17T21:36:57.264Z,10.35
2023-03-17T21:39:25.786Z,7.75
2023-03-17T21:41:57.543Z,8.02
2023-03-17T21:44:24.509Z,6.70
2023-03-17T21:46:56.363Z,8.90
2023-03-17T21:49:24.588Z,5.70
2023-03-17T21:51:51.763Z,7.28
2023-03-17T21:54:18.287Z,6.07
2023-03-17T21:56:44.762Z,6.53
2023-03-17T21:59:13.316Z,10.48
2023-03-17T22:01:45.891Z,9.45
2023-03-17T22:04:12.906Z,8.23
2023-03-17T22:06:40.146Z,5.90
2023-03-17T22:09:09.301Z,10.45
2023-03-17T22:11:35.799Z,8.80
2023-03-17T22:14:02.852Z,6.47
2023-03-17T22:16:29.300Z,7.60
2023-03-17T22:18:55.793Z,8.57
2023-03-17T22:21:23.441Z,8.55
2023-03-17T22:23:49.970Z,8.35
2023-03-17T22:26:18.917Z,6.45
2023-03-17T22:28:46.646Z,7.80
2023-03-17T22:31:21.365Z,10.38
2023-03-17T22:33:49.070Z,7.57
2023-03-17T22:36:16.353Z,9.40
2023-03-17T22:38:42.805Z,9.95
2023-03-17T22:41:13.761Z,8.32
2023-03-17T22:43:41.643Z,8.10
2023-03-17T22:46:09.534Z,9.00
2023-03-17T22:48:36.746Z,8.35
2023-03-17T22:51:05.976Z,7.88
2023-03-17T22:53:33.325Z,8.55
2023-03-17T22:56:00.563Z,7.43
2023-03-17T22:58:28.032Z,7.05
2023-03-17T23:00:56.134Z,6.88
2023-03-17T23:03:24.163Z,9.10
2023-03-17T23:05:53.575Z,7.93
2023-03-17T23:08:21.538Z,8.73
2023-03-17T23:10:49.912Z,7.45
2023-03-17T23:13:18.886Z,11.45
2023-03-17T23:15:45.976Z,7.72
2023-03-17T23:18:12.416Z,12.10
2023-03-17T23:20:42.228Z,8.70
2023-03-17T23:23:10.167Z,7.70
2023-03-17T23:25:38.307Z,7.93
2023-03-17T23:28:06.069Z,6.63
2023-03-17T23:30:33.560Z,10.05
2023-03-17T23:33:01.101Z,9.65
2023-03-17T23:35:27.819Z,8.57
2023-03-17T23:37:54.439Z,8.75
2023-03-17T23:40:22.043Z,10.88
2023-03-17T23:42:49.050Z,9.68
2023-03-17T23:45:18.013Z,7.93
2023-03-17T23:47:45.949Z,9.88
2023-03-17T23:50:14.451Z,8.35
2023-03-17T23:52:42.360Z,7.38
2023-03-17T23:55:10.455Z,12.75
2023-03-17T23:57:37.830Z,11.05
